sensor_id;sensor_type;location;lat;lon;timestamp;P1;durP1;ratioP1;P2;durP2;ratioP2
79130;SDS011;72396;45.194;9.142;2024-03-25T00:01:03;1.08;;;0.40;;
79130;SDS011;72396;45.194;9.142;2024-03-25T00:03:29;0.93;;;0.40;;
79130;SDS011;72396;45.194;9.142;2024-03-25T00:05:54;1.30;;;0.60;;
79130;SDS011;72396;45.194;9.142;2024-03-25T00:08:19;0.88;;;0.43;;
79130;SDS011;72396;45.194;9.142;2024-03-25T00:10:45;0.52;;;0.30;;
79130;SDS011;72396;45.194;9.142;2024-03-25T00:13:10;1.25;;;0.63;;
79130;SDS011;72396;45.194;9.142;2024-03-25T00:15:36;0.68;;;0.40;;
79130;SDS011;72396;45.194;9.142;2024-03-25T00:18:03;0.65;;;0.50;;
79130;SDS011;72396;45.194;9.142;2024-03-25T00:20:29;0.75;;;0.50;;
79130;SDS011;72396;45.194;9.142;2024-03-25T00:22:54;1.30;;;0.50;;
79130;SDS011;72396;45.194;9.142;2024-03-25T00:25:19;0.52;;;0.30;;
79130;SDS011;72396;45.194;9.142;2024-03-25T00:27:45;0.80;;;0.52;;
79130;SDS011;72396;45.194;9.142;2024-03-25T00:30:10;1.08;;;0.60;;
79130;SDS011;72396;45.194;9.142;2024-03-25T00:32:36;3.72;;;1.25;;
79130;SDS011;72396;45.194;9.142;2024-03-25T00:35:02;2.47;;;0.80;;
79130;SDS011;72396;45.194;9.142;2024-03-25T00:37:27;2.10;;;1.10;;
79130;SDS011;72396;45.194;9.142;2024-03-25T00:39:53;2.97;;;1.20;;
79130;SDS011;72396;45.194;9.142;2024-03-25T00:42:19;1.75;;;0.93;;
79130;SDS011;72396;45.194;9.142;2024-03-25T00:44:44;2.35;;;1.17;;
79130;SDS011;72396;45.194;9.142;2024-03-25T00:47:09;3.13;;;1.40;;
79130;SDS011;72396;45.194;9.142;2024-03-25T00:49:35;2.97;;;1.20;;
79130;SDS011;72396;45.194;9.142;2024-03-25T00:52:01;3.33;;;1.10;;
79130;SDS011;72396;45.194;9.142;2024-03-25T00:54:27;2.00;;;1.02;;
79130;SDS011;72396;45.194;9.142;2024-03-25T00:56:52;2.33;;;1.30;;
79130;SDS011;72396;45.194;9.142;2024-03-25T00:59:18;2.42;;;1.05;;
79130;SDS011;72396;45.194;9.142;2024-03-25T01:01:44;3.63;;;1.02;;
79130;SDS011;72396;45.194;9.142;2024-03-25T01:04:09;2.53;;;1.40;;
79130;SDS011;72396;45.194;9.142;2024-03-25T01:06:34;2.30;;;1.00;;
79130;SDS011;72396;45.194;9.142;2024-03-25T01:09:00;3.97;;;1.40;;
79130;SDS011;72396;45.194;9.142;2024-03-25T01:11:25;3.05;;;1.52;;
79130;SDS011;72396;45.194;9.142;2024-03-25T01:13:51;3.13;;;1.30;;
79130;SDS011;72396;45.194;9.142;2024-03-25T01:16:16;3.00;;;1.20;;
79130;SDS011;72396;45.194;9.142;2024-03-25T01:18:42;3.78;;;1.40;;
79130;SDS011;72396;45.194;9.142;2024-03-25T01:21:07;2.45;;;1.40;;
79130;SDS011;72396;45.194;9.142;2024-03-25T01:23:32;2.78;;;1.40;;
79130;SDS011;72396;45.194;9.142;2024-03-25T01:25:57;3.53;;;1.60;;
79130;SDS011;72396;45.194;9.142;2024-03-25T01:28:23;3.03;;;1.30;;
79130;SDS011;72396;45.194;9.142;2024-03-25T01:30:48;3.13;;;1.40;;
79130;SDS011;72396;45.194;9.142;2024-03-25T01:33:14;3.65;;;1.73;;
79130;SDS011;72396;45.194;9.142;2024-03-25T01:35:40;3.20;;;1.63;;
79130;SDS011;72396;45.194;9.142;2024-03-25T01:38:05;4.25;;;1.60;;
79130;SDS011;72396;45.194;9.142;2024-03-25T01:40:30;3.63;;;1.88;;
79130;SDS011;72396;45.194;9.142;2024-03-25T01:45:34;5.18;;;1.75;;
79130;SDS011;72396;45.194;9.142;2024-03-25T01:48:07;2.97;;;1.40;;
79130;SDS011;72396;45.194;9.142;2024-03-25T01:50:35;2.63;;;1.40;;
79130;SDS011;72396;45.194;9.142;2024-03-25T01:53:03;3.53;;;1.73;;
79130;SDS011;72396;45.194;9.142;2024-03-25T01:55:29;3.67;;;1.88;;
79130;SDS011;72396;45.194;9.142;2024-03-25T01:57:57;3.22;;;1.40;;
79130;SDS011;72396;45.194;9.142;2024-03-25T02:00:24;3.67;;;1.77;;
79130;SDS011;72396;45.194;9.142;2024-03-25T02:02:50;3.05;;;1.50;;
79130;SDS011;72396;45.194;9.142;2024-03-25T02:05:17;3.00;;;1.42;;
79130;SDS011;72396;45.194;9.142;2024-03-25T02:07:43;3.13;;;1.73;;
79130;SDS011;72396;45.194;9.142;2024-03-25T02:10:09;4.15;;;1.52;;
79130;SDS011;72396;45.194;9.142;2024-03-25T02:12:35;4.82;;;1.77;;
79130;SDS011;72396;45.194;9.142;2024-03-25T02:15:02;3.53;;;1.98;;
79130;SDS011;72396;45.194;9.142;2024-03-25T02:17:27;4.50;;;2.00;;
79130;SDS011;72396;45.194;9.142;2024-03-25T02:19:53;3.47;;;1.75;;
79130;SDS011;72396;45.194;9.142;2024-03-25T02:22:18;2.95;;;1.60;;
79130;SDS011;72396;45.194;9.142;2024-03-25T02:24:45;4.15;;;1.90;;
79130;SDS011;72396;45.194;9.142;2024-03-25T02:27:11;3.53;;;1.67;;
79130;SDS011;72396;45.194;9.142;2024-03-25T02:29:40;3.65;;;1.90;;
79130;SDS011;72396;45.194;9.142;2024-03-25T02:32:06;3.50;;;1.70;;
79130;SDS011;72396;45.194;9.142;2024-03-25T02:34:35;3.72;;;2.10;;
79130;SDS011;72396;45.194;9.142;2024-03-25T02:37:10;2.78;;;1.50;;
79130;SDS011;72396;45.194;9.142;2024-03-25T02:39:36;5.22;;;2.00;;
79130;SDS011;72396;45.194;9.142;2024-03-25T02:42:02;4.47;;;1.85;;
79130;SDS011;72396;45.194;9.142;2024-03-25T02:44:27;4.63;;;1.63;;
79130;SDS011;72396;45.194;9.142;2024-03-25T02:46:53;3.90;;;1.90;;
79130;SDS011;72396;45.194;9.142;2024-03-25T02:49:19;3.83;;;1.60;;
79130;SDS011;72396;45.194;9.142;2024-03-25T02:51:45;4.10;;;1.95;;
79130;SDS011;72396;45.194;9.142;2024-03-25T02:54:10;3.08;;;1.60;;
79130;SDS011;72396;45.194;9.142;2024-03-25T02:56:36;4.82;;;1.90;;
79130;SDS011;72396;45.194;9.142;2024-03-25T02:59:01;3.53;;;1.90;;
79130;SDS011;72396;45.194;9.142;2024-03-25T03:01:27;3.65;;;1.95;;
79130;SDS011;72396;45.194;9.142;2024-03-25T03:03:52;3.20;;;1.70;;
79130;SDS011;72396;45.194;9.142;2024-03-25T03:06:17;4.57;;;1.88;;
79130;SDS011;72396;45.194;9.142;2024-03-25T03:08:43;3.70;;;1.60;;
79130;SDS011;72396;45.194;9.142;2024-03-25T03:11:09;3.35;;;1.73;;
79130;SDS011;72396;45.194;9.142;2024-03-25T03:13:34;3.63;;;1.80;;
79130;SDS011;72396;45.194;9.142;2024-03-25T03:16:00;2.72;;;1.35;;
79130;SDS011;72396;45.194;9.142;2024-03-25T03:18:25;3.47;;;2.17;;
79130;SDS011;72396;45.194;9.142;2024-03-25T03:20:50;3.72;;;1.98;;
79130;SDS011;72396;45.194;9.142;2024-03-25T03:23:16;3.67;;;1.70;;
79130;SDS011;72396;45.194;9.142;2024-03-25T03:25:42;3.65;;;1.90;;
79130;SDS011;72396;45.194;9.142;2024-03-25T03:28:07;4.93;;;2.25;;
79130;SDS011;72396;45.194;9.142;2024-03-25T03:30:33;3.75;;;1.77;;
79130;SDS011;72396;45.194;9.142;2024-03-25T03:32:58;3.25;;;1.85;;
79130;SDS011;72396;45.194;9.142;2024-03-25T03:35:23;5.15;;;2.15;;
79130;SDS011;72396;45.194;9.142;2024-03-25T03:37:49;4.32;;;1.80;;
79130;SDS011;72396;45.194;9.142;2024-03-25T03:40:14;3.10;;;1.92;;
79130;SDS011;72396;45.194;9.142;2024-03-25T03:42:40;3.72;;;1.98;;
79130;SDS011;72396;45.194;9.142;2024-03-25T03:45:06;3.60;;;1.90;;
79130;SDS011;72396;45.194;9.142;2024-03-25T03:47:32;4.70;;;1.70;;
79130;SDS011;72396;45.194;9.142;2024-03-25T03:49:57;3.97;;;1.73;;
79130;SDS011;72396;45.194;9.142;2024-03-25T03:52:23;3.80;;;1.52;;
79130;SDS011;72396;45.194;9.142;2024-03-25T03:54:48;4.32;;;1.90;;
79130;SDS011;72396;45.194;9.142;2024-03-25T03:57:13;3.30;;;1.67;;
79130;SDS011;72396;45.194;9.142;2024-03-25T03:59:39;4.57;;;1.92;;
79130;SDS011;72396;45.194;9.142;2024-03-25T04:02:04;3.33;;;1.58;;
79130;SDS011;72396;45.194;9.142;2024-03-25T04:04:29;4.18;;;1.80;;
79130;SDS011;72396;45.194;9.142;2024-03-25T04:06:55;3.47;;;1.50;;
79130;SDS011;72396;45.194;9.142;2024-03-25T04:09:20;3.45;;;1.50;;
79130;SDS011;72396;45.194;9.142;2024-03-25T04:11:48;2.90;;;1.35;;
79130;SDS011;72396;45.194;9.142;2024-03-25T04:14:14;2.67;;;1.42;;
79130;SDS011;72396;45.194;9.142;2024-03-25T04:16:39;4.05;;;1.63;;
79130;SDS011;72396;45.194;9.142;2024-03-25T04:19:04;2.92;;;1.48;;
79130;SDS011;72396;45.194;9.142;2024-03-25T04:21:30;3.90;;;2.00;;
79130;SDS011;72396;45.194;9.142;2024-03-25T04:23:55;3.90;;;1.80;;
79130;SDS011;72396;45.194;9.142;2024-03-25T04:26:20;3.13;;;1.77;;
79130;SDS011;72396;45.194;9.142;2024-03-25T04:28:46;3.33;;;1.90;;
79130;SDS011;72396;45.194;9.142;2024-03-25T04:31:11;3.65;;;1.98;;
79130;SDS011;72396;45.194;9.142;2024-03-25T04:33:37;4.93;;;1.98;;
79130;SDS011;72396;45.194;9.142;2024-03-25T04:36:02;4.03;;;1.70;;
79130;SDS011;72396;45.194;9.142;2024-03-25T04:38:28;3.00;;;1.73;;
79130;SDS011;72396;45.194;9.142;2024-03-25T04:40:54;3.40;;;2.05;;
79130;SDS011;72396;45.194;9.142;2024-03-25T04:43:19;3.63;;;1.70;;
79130;SDS011;72396;45.194;9.142;2024-03-25T04:45:45;4.60;;;1.92;;
79130;SDS011;72396;45.194;9.142;2024-03-25T04:48:11;3.70;;;1.90;;
79130;SDS011;72396;45.194;9.142;2024-03-25T04:50:36;3.33;;;2.22;;
79130;SDS011;72396;45.194;9.142;2024-03-25T04:53:02;4.13;;;1.70;;
79130;SDS011;72396;45.194;9.142;2024-03-25T04:55:27;4.03;;;1.70;;
79130;SDS011;72396;45.194;9.142;2024-03-25T04:57:53;3.50;;;1.50;;
79130;SDS011;72396;45.194;9.142;2024-03-25T05:00:18;3.47;;;1.40;;
79130;SDS011;72396;45.194;9.142;2024-03-25T05:02:43;4.05;;;1.98;;
79130;SDS011;72396;45.194;9.142;2024-03-25T05:05:09;3.40;;;1.70;;
79130;SDS011;72396;45.194;9.142;2024-03-25T05:07:35;3.92;;;1.95;;
79130;SDS011;72396;45.194;9.142;2024-03-25T05:10:00;4.05;;;1.50;;
79130;SDS011;72396;45.194;9.142;2024-03-25T05:12:26;4.07;;;1.33;;
79130;SDS011;72396;45.194;9.142;2024-03-25T05:14:55;4.55;;;1.50;;
79130;SDS011;72396;45.194;9.142;2024-03-25T05:17:21;2.70;;;1.30;;
79130;SDS011;72396;45.194;9.142;2024-03-25T05:19:46;2.97;;;1.40;;
79130;SDS011;72396;45.194;9.142;2024-03-25T05:22:11;2.35;;;1.13;;
79130;SDS011;72396;45.194;9.142;2024-03-25T05:24:37;3.85;;;1.70;;
79130;SDS011;72396;45.194;9.142;2024-03-25T05:27:02;3.80;;;1.80;;
79130;SDS011;72396;45.194;9.142;2024-03-25T05:29:27;3.22;;;1.40;;
79130;SDS011;72396;45.194;9.142;2024-03-25T05:31:57;2.63;;;1.40;;
79130;SDS011;72396;45.194;9.142;2024-03-25T05:34:24;3.22;;;1.38;;
79130;SDS011;72396;45.194;9.142;2024-03-25T05:36:50;3.42;;;1.30;;
79130;SDS011;72396;45.194;9.142;2024-03-25T05:39:15;2.70;;;1.17;;
79130;SDS011;72396;45.194;9.142;2024-03-25T05:41:41;3.00;;;1.30;;
79130;SDS011;72396;45.194;9.142;2024-03-25T05:44:06;5.75;;;1.50;;
79130;SDS011;72396;45.194;9.142;2024-03-25T05:46:32;2.95;;;1.23;;
79130;SDS011;72396;45.194;9.142;2024-03-25T05:48:57;2.78;;;1.30;;
79130;SDS011;72396;45.194;9.142;2024-03-25T05:51:22;2.33;;;1.20;;
79130;SDS011;72396;45.194;9.142;2024-03-25T05:53:48;3.22;;;1.40;;
79130;SDS011;72396;45.194;9.142;2024-03-25T05:56:13;3.03;;;1.42;;
79130;SDS011;72396;45.194;9.142;2024-03-25T05:58:39;3.42;;;1.52;;
79130;SDS011;72396;45.194;9.142;2024-03-25T06:01:04;2.78;;;1.35;;
79130;SDS011;72396;45.194;9.142;2024-03-25T06:03:29;3.53;;;1.60;;
79130;SDS011;72396;45.194;9.142;2024-03-25T06:05:55;3.47;;;1.27;;
79130;SDS011;72396;45.194;9.142;2024-03-25T06:08:21;4.13;;;1.50;;
79130;SDS011;72396;45.194;9.142;2024-03-25T06:10:50;3.03;;;1.60;;
79130;SDS011;72396;45.194;9.142;2024-03-25T06:13:16;3.70;;;1.83;;
79130;SDS011;72396;45.194;9.142;2024-03-25T06:15:41;3.35;;;1.50;;
79130;SDS011;72396;45.194;9.142;2024-03-25T06:18:07;2.72;;;1.48;;
79130;SDS011;72396;45.194;9.142;2024-03-25T06:20:32;2.67;;;1.60;;
79130;SDS011;72396;45.194;9.142;2024-03-25T06:22:57;3.60;;;1.40;;
79130;SDS011;72396;45.194;9.142;2024-03-25T06:25:23;6.82;;;1.92;;
79130;SDS011;72396;45.194;9.142;2024-03-25T06:27:48;4.22;;;1.60;;
79130;SDS011;72396;45.194;9.142;2024-03-25T06:30:13;16.63;;;2.92;;
79130;SDS011;72396;45.194;9.142;2024-03-25T06:32:57;7.13;;;1.98;;
79130;SDS011;72396;45.194;9.142;2024-03-25T06:35:44;8.85;;;1.73;;
79130;SDS011;72396;45.194;9.142;2024-03-25T06:38:10;3.78;;;1.80;;
79130;SDS011;72396;45.194;9.142;2024-03-25T06:40:36;3.80;;;1.65;;
79130;SDS011;72396;45.194;9.142;2024-03-25T06:43:02;3.30;;;1.52;;
79130;SDS011;72396;45.194;9.142;2024-03-25T06:45:27;4.03;;;1.60;;
79130;SDS011;72396;45.194;9.142;2024-03-25T06:47:53;5.07;;;1.63;;
79130;SDS011;72396;45.194;9.142;2024-03-25T06:50:18;3.47;;;1.60;;
79130;SDS011;72396;45.194;9.142;2024-03-25T06:52:43;5.20;;;2.10;;
79130;SDS011;72396;45.194;9.142;2024-03-25T06:55:09;4.80;;;1.67;;
79130;SDS011;72396;45.194;9.142;2024-03-25T06:57:34;2.45;;;1.42;;
79130;SDS011;72396;45.194;9.142;2024-03-25T07:00:00;4.85;;;1.70;;
79130;SDS011;72396;45.194;9.142;2024-03-25T07:02:25;4.57;;;2.20;;
79130;SDS011;72396;45.194;9.142;2024-03-25T07:04:51;3.78;;;1.60;;
79130;SDS011;72396;45.194;9.142;2024-03-25T07:07:16;3.15;;;1.73;;
79130;SDS011;72396;45.194;9.142;2024-03-25T07:09:42;3.28;;;1.60;;
79130;SDS011;72396;45.194;9.142;2024-03-25T07:12:08;4.43;;;1.80;;
79130;SDS011;72396;45.194;9.142;2024-03-25T07:14:33;3.28;;;1.83;;
79130;SDS011;72396;45.194;9.142;2024-03-25T07:16:59;3.28;;;1.65;;
79130;SDS011;72396;45.194;9.142;2024-03-25T07:19:24;4.90;;;2.00;;
79130;SDS011;72396;45.194;9.142;2024-03-25T07:21:50;3.58;;;1.90;;
79130;SDS011;72396;45.194;9.142;2024-03-25T07:24:15;3.95;;;1.75;;
79130;SDS011;72396;45.194;9.142;2024-03-25T07:26:40;4.00;;;1.90;;
79130;SDS011;72396;45.194;9.142;2024-03-25T07:29:06;4.78;;;1.98;;
79130;SDS011;72396;45.194;9.142;2024-03-25T07:31:31;3.70;;;1.67;;
79130;SDS011;72396;45.194;9.142;2024-03-25T07:33:57;7.07;;;1.90;;
79130;SDS011;72396;45.194;9.142;2024-03-25T07:36:22;5.45;;;1.98;;
79130;SDS011;72396;45.194;9.142;2024-03-25T07:38:47;4.35;;;1.98;;
79130;SDS011;72396;45.194;9.142;2024-03-25T07:41:13;3.25;;;1.73;;
79130;SDS011;72396;45.194;9.142;2024-03-25T07:43:38;4.65;;;2.03;;
79130;SDS011;72396;45.194;9.142;2024-03-25T07:46:03;4.63;;;1.85;;
79130;SDS011;72396;45.194;9.142;2024-03-25T07:48:30;6.45;;;1.70;;
79130;SDS011;72396;45.194;9.142;2024-03-25T07:50:55;3.53;;;2.00;;
79130;SDS011;72396;45.194;9.142;2024-03-25T07:53:20;2.90;;;1.75;;
79130;SDS011;72396;45.194;9.142;2024-03-25T07:55:46;5.07;;;2.00;;
79130;SDS011;72396;45.194;9.142;2024-03-25T07:58:11;4.35;;;1.38;;
79130;SDS011;72396;45.194;9.142;2024-03-25T08:00:36;3.78;;;1.70;;
79130;SDS011;72396;45.194;9.142;2024-03-25T08:03:02;4.05;;;1.63;;
79130;SDS011;72396;45.194;9.142;2024-03-25T08:05:29;3.33;;;1.60;;
79130;SDS011;72396;45.194;9.142;2024-03-25T08:07:55;4.32;;;1.50;;
79130;SDS011;72396;45.194;9.142;2024-03-25T08:10:20;3.65;;;1.60;;
79130;SDS011;72396;45.194;9.142;2024-03-25T08:12:46;5.72;;;1.70;;
79130;SDS011;72396;45.194;9.142;2024-03-25T08:15:11;3.85;;;1.95;;
79130;SDS011;72396;45.194;9.142;2024-03-25T08:17:38;3.45;;;1.67;;
79130;SDS011;72396;45.194;9.142;2024-03-25T08:20:04;3.88;;;1.70;;
79130;SDS011;72396;45.194;9.142;2024-03-25T08:22:30;3.25;;;1.55;;
79130;SDS011;72396;45.194;9.142;2024-03-25T08:24:55;3.58;;;1.70;;
79130;SDS011;72396;45.194;9.142;2024-03-25T08:27:21;3.28;;;1.60;;
79130;SDS011;72396;45.194;9.142;2024-03-25T08:29:46;3.42;;;1.63;;
79130;SDS011;72396;45.194;9.142;2024-03-25T08:32:11;3.72;;;1.60;;
79130;SDS011;72396;45.194;9.142;2024-03-25T08:34:37;4.90;;;1.70;;
79130;SDS011;72396;45.194;9.142;2024-03-25T08:37:02;3.65;;;1.60;;
79130;SDS011;72396;45.194;9.142;2024-03-25T08:39:29;3.78;;;1.60;;
79130;SDS011;72396;45.194;9.142;2024-03-25T08:41:54;4.57;;;1.70;;
79130;SDS011;72396;45.194;9.142;2024-03-25T08:44:19;3.40;;;1.50;;
79130;SDS011;72396;45.194;9.142;2024-03-25T08:46:45;3.13;;;1.67;;
79130;SDS011;72396;45.194;9.142;2024-03-25T08:49:10;3.40;;;1.38;;
79130;SDS011;72396;45.194;9.142;2024-03-25T08:51:35;2.90;;;1.40;;
79130;SDS011;72396;45.194;9.142;2024-03-25T08:54:01;3.50;;;1.60;;
79130;SDS011;72396;45.194;9.142;2024-03-25T08:56:26;2.58;;;1.40;;
79130;SDS011;72396;45.194;9.142;2024-03-25T08:58:51;3.47;;;1.60;;
79130;SDS011;72396;45.194;9.142;2024-03-25T09:01:19;3.30;;;1.40;;
79130;SDS011;72396;45.194;9.142;2024-03-25T09:03:45;3.35;;;1.98;;
79130;SDS011;72396;45.194;9.142;2024-03-25T09:06:10;2.80;;;1.50;;
79130;SDS011;72396;45.194;9.142;2024-03-25T09:08:36;4.93;;;2.58;;
79130;SDS011;72396;45.194;9.142;2024-03-25T09:11:21;5.75;;;1.60;;
79130;SDS011;72396;45.194;9.142;2024-03-25T09:13:49;5.03;;;2.00;;
79130;SDS011;72396;45.194;9.142;2024-03-25T09:16:15;3.72;;;1.55;;
79130;SDS011;72396;45.194;9.142;2024-03-25T09:18:40;3.42;;;1.60;;
79130;SDS011;72396;45.194;9.142;2024-03-25T09:21:05;4.18;;;1.70;;
79130;SDS011;72396;45.194;9.142;2024-03-25T09:23:31;3.53;;;1.77;;
79130;SDS011;72396;45.194;9.142;2024-03-25T09:25:57;3.97;;;1.77;;
79130;SDS011;72396;45.194;9.142;2024-03-25T09:28:22;4.10;;;1.55;;
79130;SDS011;72396;45.194;9.142;2024-03-25T09:30:47;4.68;;;1.90;;
79130;SDS011;72396;45.194;9.142;2024-03-25T09:33:13;3.63;;;1.90;;
79130;SDS011;72396;45.194;9.142;2024-03-25T09:35:39;4.72;;;2.33;;
79130;SDS011;72396;45.194;9.142;2024-03-25T09:38:05;4.68;;;1.83;;
79130;SDS011;72396;45.194;9.142;2024-03-25T09:40:30;3.20;;;1.67;;
79130;SDS011;72396;45.194;9.142;2024-03-25T09:42:56;4.80;;;2.20;;
79130;SDS011;72396;45.194;9.142;2024-03-25T09:45:25;4.05;;;2.03;;
79130;SDS011;72396;45.194;9.142;2024-03-25T09:47:51;3.80;;;2.10;;
79130;SDS011;72396;45.194;9.142;2024-03-25T09:50:17;4.35;;;2.13;;
79130;SDS011;72396;45.194;9.142;2024-03-25T09:52:44;3.58;;;2.50;;
79130;SDS011;72396;45.194;9.142;2024-03-25T09:55:10;6.38;;;2.17;;
79130;SDS011;72396;45.194;9.142;2024-03-25T09:57:36;4.65;;;1.90;;
79130;SDS011;72396;45.194;9.142;2024-03-25T10:00:03;4.05;;;1.83;;
79130;SDS011;72396;45.194;9.142;2024-03-25T10:02:33;4.43;;;2.20;;
79130;SDS011;72396;45.194;9.142;2024-03-25T10:05:01;5.85;;;2.40;;
79130;SDS011;72396;45.194;9.142;2024-03-25T10:07:27;5.03;;;2.30;;
79130;SDS011;72396;45.194;9.142;2024-03-25T10:09:53;5.72;;;2.60;;
79130;SDS011;72396;45.194;9.142;2024-03-25T10:12:19;4.68;;;2.03;;
79130;SDS011;72396;45.194;9.142;2024-03-25T10:14:44;4.72;;;2.63;;
79130;SDS011;72396;45.194;9.142;2024-03-25T10:17:10;5.00;;;2.40;;
79130;SDS011;72396;45.194;9.142;2024-03-25T10:19:36;5.72;;;2.58;;
79130;SDS011;72396;45.194;9.142;2024-03-25T10:22:06;3.53;;;2.28;;
79130;SDS011;72396;45.194;9.142;2024-03-25T10:24:44;4.82;;;2.38;;
79130;SDS011;72396;45.194;9.142;2024-03-25T10:27:17;5.03;;;2.10;;
79130;SDS011;72396;45.194;9.142;2024-03-25T10:29:45;3.88;;;2.15;;
79130;SDS011;72396;45.194;9.142;2024-03-25T10:32:12;3.38;;;2.00;;
79130;SDS011;72396;45.194;9.142;2024-03-25T10:34:38;4.20;;;2.15;;
79130;SDS011;72396;45.194;9.142;2024-03-25T10:37:03;4.57;;;2.05;;
79130;SDS011;72396;45.194;9.142;2024-03-25T10:39:30;4.32;;;1.92;;
79130;SDS011;72396;45.194;9.142;2024-03-25T10:41:57;3.38;;;1.85;;
79130;SDS011;72396;45.194;9.142;2024-03-25T10:44:25;4.38;;;1.77;;
79130;SDS011;72396;45.194;9.142;2024-03-25T10:46:55;2.97;;;1.55;;
79130;SDS011;72396;45.194;9.142;2024-03-25T10:50:09;2.88;;;1.50;;
79130;SDS011;72396;45.194;9.142;2024-03-25T10:52:13;3.08;;;1.58;;
79130;SDS011;72396;45.194;9.142;2024-03-25T10:54:40;3.70;;;1.80;;
79130;SDS011;72396;45.194;9.142;2024-03-25T10:57:07;4.72;;;1.98;;
79130;SDS011;72396;45.194;9.142;2024-03-25T10:59:34;5.72;;;2.10;;
79130;SDS011;72396;45.194;9.142;2024-03-25T11:02:06;3.72;;;1.98;;
79130;SDS011;72396;45.194;9.142;2024-03-25T11:04:31;6.75;;;2.05;;
79130;SDS011;72396;45.194;9.142;2024-03-25T11:07:10;5.75;;;2.30;;
79130;SDS011;72396;45.194;9.142;2024-03-25T11:09:37;3.97;;;1.88;;
79130;SDS011;72396;45.194;9.142;2024-03-25T11:12:03;2.97;;;1.80;;
79130;SDS011;72396;45.194;9.142;2024-03-25T11:14:29;3.72;;;1.35;;
79130;SDS011;72396;45.194;9.142;2024-03-25T11:16:57;2.78;;;1.63;;
79130;SDS011;72396;45.194;9.142;2024-03-25T11:19:25;3.45;;;1.60;;
79130;SDS011;72396;45.194;9.142;2024-03-25T11:21:52;3.83;;;1.50;;
79130;SDS011;72396;45.194;9.142;2024-03-25T11:24:29;3.65;;;1.52;;
79130;SDS011;72396;45.194;9.142;2024-03-25T11:29:21;2.83;;;1.50;;
79130;SDS011;72396;45.194;9.142;2024-03-25T11:31:48;3.47;;;1.75;;
79130;SDS011;72396;45.194;9.142;2024-03-25T11:34:14;2.90;;;1.40;;
79130;SDS011;72396;45.194;9.142;2024-03-25T11:36:40;3.55;;;1.23;;
79130;SDS011;72396;45.194;9.142;2024-03-25T11:39:05;2.53;;;1.40;;
79130;SDS011;72396;45.194;9.142;2024-03-25T11:41:35;5.53;;;1.30;;
79130;SDS011;72396;45.194;9.142;2024-03-25T11:44:05;3.28;;;1.67;;
79130;SDS011;72396;45.194;9.142;2024-03-25T11:46:30;3.35;;;1.75;;
79130;SDS011;72396;45.194;9.142;2024-03-25T11:48:56;3.40;;;1.73;;
79130;SDS011;72396;45.194;9.142;2024-03-25T11:51:23;5.03;;;2.60;;
79130;SDS011;72396;45.194;9.142;2024-03-25T11:53:48;3.30;;;1.58;;
79130;SDS011;72396;45.194;9.142;2024-03-25T11:56:14;3.00;;;1.60;;
79130;SDS011;72396;45.194;9.142;2024-03-25T11:58:39;3.00;;;1.65;;
79130;SDS011;72396;45.194;9.142;2024-03-25T12:01:05;5.50;;;1.90;;
79130;SDS011;72396;45.194;9.142;2024-03-25T12:03:30;4.80;;;1.70;;
79130;SDS011;72396;45.194;9.142;2024-03-25T12:05:58;4.55;;;1.70;;
79130;SDS011;72396;45.194;9.142;2024-03-25T12:08:23;3.42;;;1.65;;
79130;SDS011;72396;45.194;9.142;2024-03-25T12:10:51;4.40;;;1.60;;
79130;SDS011;72396;45.194;9.142;2024-03-25T12:13:35;3.83;;;1.60;;
79130;SDS011;72396;45.194;9.142;2024-03-25T12:16:05;3.83;;;1.45;;
79130;SDS011;72396;45.194;9.142;2024-03-25T12:18:32;4.20;;;1.60;;
79130;SDS011;72396;45.194;9.142;2024-03-25T12:20:58;3.03;;;1.20;;
79130;SDS011;72396;45.194;9.142;2024-03-25T12:23:28;2.97;;;1.30;;
79130;SDS011;72396;45.194;9.142;2024-03-25T12:25:54;2.47;;;1.00;;
79130;SDS011;72396;45.194;9.142;2024-03-25T12:28:19;1.30;;;0.85;;
79130;SDS011;72396;45.194;9.142;2024-03-25T12:30:49;2.50;;;1.20;;
79130;SDS011;72396;45.194;9.142;2024-03-25T12:33:16;2.38;;;0.93;;
79130;SDS011;72396;45.194;9.142;2024-03-25T12:35:44;2.58;;;1.10;;
79130;SDS011;72396;45.194;9.142;2024-03-25T12:38:20;2.20;;;1.10;;
79130;SDS011;72396;45.194;9.142;2024-03-25T12:40:49;3.65;;;1.20;;
79130;SDS011;72396;45.194;9.142;2024-03-25T12:43:15;2.72;;;1.15;;
79130;SDS011;72396;45.194;9.142;2024-03-25T12:45:41;5.05;;;2.65;;
79130;SDS011;72396;45.194;9.142;2024-03-25T12:48:06;2.70;;;0.95;;
79130;SDS011;72396;45.194;9.142;2024-03-25T12:50:32;4.32;;;1.27;;
79130;SDS011;72396;45.194;9.142;2024-03-25T12:52:57;3.67;;;1.10;;
79130;SDS011;72396;45.194;9.142;2024-03-25T12:55:23;3.05;;;1.08;;
79130;SDS011;72396;45.194;9.142;2024-03-25T12:57:48;4.60;;;1.30;;
79130;SDS011;72396;45.194;9.142;2024-03-25T13:00:13;2.33;;;0.93;;
79130;SDS011;72396;45.194;9.142;2024-03-25T13:02:39;2.25;;;1.10;;
79130;SDS011;72396;45.194;9.142;2024-03-25T13:05:05;2.65;;;0.90;;
79130;SDS011;72396;45.194;9.142;2024-03-25T13:07:30;1.80;;;0.90;;
79130;SDS011;72396;45.194;9.142;2024-03-25T13:09:56;2.53;;;1.02;;
79130;SDS011;72396;45.194;9.142;2024-03-25T13:12:23;2.20;;;1.10;;
79130;SDS011;72396;45.194;9.142;2024-03-25T13:14:48;2.40;;;1.10;;
79130;SDS011;72396;45.194;9.142;2024-03-25T13:17:13;2.83;;;1.40;;
79130;SDS011;72396;45.194;9.142;2024-03-25T13:19:39;2.33;;;1.17;;
79130;SDS011;72396;45.194;9.142;2024-03-25T13:22:04;2.75;;;1.30;;
79130;SDS011;72396;45.194;9.142;2024-03-25T13:24:30;3.05;;;1.30;;
79130;SDS011;72396;45.194;9.142;2024-03-25T13:26:56;3.38;;;1.30;;
79130;SDS011;72396;45.194;9.142;2024-03-25T13:29:21;2.35;;;1.20;;
79130;SDS011;72396;45.194;9.142;2024-03-25T13:31:47;2.35;;;1.10;;
79130;SDS011;72396;45.194;9.142;2024-03-25T13:34:12;2.92;;;1.42;;
79130;SDS011;72396;45.194;9.142;2024-03-25T13:36:37;2.33;;;1.25;;
79130;SDS011;72396;45.194;9.142;2024-03-25T13:39:03;2.58;;;1.23;;
79130;SDS011;72396;45.194;9.142;2024-03-25T13:41:28;2.53;;;1.10;;
79130;SDS011;72396;45.194;9.142;2024-03-25T13:43:54;2.83;;;1.38;;
79130;SDS011;72396;45.194;9.142;2024-03-25T13:46:19;3.83;;;1.50;;
79130;SDS011;72396;45.194;9.142;2024-03-25T13:48:45;2.60;;;1.40;;
79130;SDS011;72396;45.194;9.142;2024-03-25T13:51:12;4.68;;;1.33;;
79130;SDS011;72396;45.194;9.142;2024-03-25T13:53:37;3.53;;;1.65;;
79130;SDS011;72396;45.194;9.142;2024-03-25T13:56:02;3.92;;;1.60;;
79130;SDS011;72396;45.194;9.142;2024-03-25T13:58:28;3.25;;;1.40;;
79130;SDS011;72396;45.194;9.142;2024-03-25T14:00:53;3.92;;;1.70;;
79130;SDS011;72396;45.194;9.142;2024-03-25T14:03:20;4.57;;;1.90;;
79130;SDS011;72396;45.194;9.142;2024-03-25T14:05:45;2.95;;;1.60;;
79130;SDS011;72396;45.194;9.142;2024-03-25T14:08:11;5.40;;;1.88;;
79130;SDS011;72396;45.194;9.142;2024-03-25T14:10:37;4.10;;;2.08;;
79130;SDS011;72396;45.194;9.142;2024-03-25T14:13:02;7.63;;;2.45;;
79130;SDS011;72396;45.194;9.142;2024-03-25T14:15:28;5.63;;;2.00;;
79130;SDS011;72396;45.194;9.142;2024-03-25T14:17:54;3.33;;;2.10;;
79130;SDS011;72396;45.194;9.142;2024-03-25T14:20:19;3.05;;;1.67;;
79130;SDS011;72396;45.194;9.142;2024-03-25T14:22:44;3.38;;;2.10;;
79130;SDS011;72396;45.194;9.142;2024-03-25T14:25:10;3.50;;;1.92;;
79130;SDS011;72396;45.194;9.142;2024-03-25T14:27:35;4.20;;;2.13;;
79130;SDS011;72396;45.194;9.142;2024-03-25T14:30:00;3.88;;;2.20;;
79130;SDS011;72396;45.194;9.142;2024-03-25T14:32:26;3.42;;;1.90;;
79130;SDS011;72396;45.194;9.142;2024-03-25T14:34:51;3.97;;;2.00;;
79130;SDS011;72396;45.194;9.142;2024-03-25T14:37:16;3.42;;;1.80;;
79130;SDS011;72396;45.194;9.142;2024-03-25T14:39:42;3.30;;;1.85;;
79130;SDS011;72396;45.194;9.142;2024-03-25T14:42:08;4.00;;;2.28;;
79130;SDS011;72396;45.194;9.142;2024-03-25T14:44:35;4.05;;;2.25;;
79130;SDS011;72396;45.194;9.142;2024-03-25T14:47:01;3.83;;;2.08;;